createdAt,value
2024-01-20T00:01:29.412Z,4.61
2024-01-20T00:03:59.438Z,5.71
2024-01-20T00:06:27.142Z,4.63
2024-01-20T00:08:57.440Z,5.09
2024-01-20T00:11:25.206Z,4.73
2024-01-20T00:13:53.752Z,4.95
2024-01-20T00:16:21.877Z,5.42
2024-01-20T00:18:51.533Z,4.95
2024-01-20T00:21:20.772Z,5.79
2024-01-20T00:23:48.751Z,5.38
2024-01-20T00:26:17.615Z,5.88
2024-01-20T00:28:45.694Z,4.34
2024-01-20T00:31:13.968Z,4.57
2024-01-20T00:33:42.713Z,5.28
2024-01-20T00:36:10.942Z,5.10
2024-01-20T00:38:43.485Z,4.48
2024-01-20T00:41:12.543Z,5.75
2024-01-20T00:43:41.520Z,5.83
2024-01-20T00:46:10.034Z,5.07
2024-01-20T00:48:38.494Z,5.62
2024-01-20T00:51:06.592Z,5.01
2024-01-20T00:53:34.487Z,5.76
2024-01-20T00:56:03.917Z,5.21
2024-01-20T00:58:32.509Z,5.95
2024-01-20T01:01:00.280Z,5.97
2024-01-20T01:03:28.050Z,4.64
2024-01-20T01:05:56.548Z,5.30
2024-01-20T01:08:24.620Z,6.27
2024-01-20T01:10:52.526Z,4.79
2024-01-20T01:13:21.585Z,4.83
2024-01-20T01:15:53.966Z,7.16
2024-01-20T01:18:22.001Z,5.54
2024-01-20T01:20:50.558Z,5.97
2024-01-20T01:23:18.358Z,5.44
2024-01-20T01:25:52.550Z,5.95
2024-01-20T01:28:21.718Z,5.13
2024-01-20T01:30:49.839Z,6.38
2024-01-20T01:33:19.009Z,6.33
2024-01-20T01:35:47.115Z,5.47
2024-01-20T01:38:15.640Z,5.97
2024-01-20T01:40:43.350Z,4.11
2024-01-20T01:43:11.554Z,5.23
2024-01-20T01:45:41.276Z,5.79
2024-01-20T01:48:09.597Z,5.20
2024-01-20T01:50:37.762Z,6.01
2024-01-20T01:53:06.656Z,4.87
2024-01-20T01:55:35.947Z,5.57
2024-01-20T01:58:05.554Z,4.84
2024-01-20T02:00:33.526Z,5.35
2024-01-20T02:03:03.592Z,4.83
2024-01-20T02:05:31.253Z,6.19
2024-01-20T02:08:00.548Z,5.70
2024-01-20T02:10:28.440Z,4.99
2024-01-20T02:12:56.554Z,4.01
2024-01-20T02:15:25.311Z,5.66
2024-01-20T02:17:53.674Z,5.43
2024-01-20T02:20:24.153Z,4.84
2024-01-20T02:22:53.266Z,3.64
2024-01-20T02:25:21.607Z,5.77
2024-01-20T02:27:49.425Z,6.13
2024-01-20T02:30:17.142Z,5.48
2024-01-20T02:32:45.684Z,4.21
2024-01-20T02:35:13.508Z,4.30
2024-01-20T02:37:41.608Z,5.09
2024-01-20T02:40:11.404Z,4.97
2024-01-20T02:42:39.098Z,4.53
2024-01-20T02:45:08.671Z,6.02
2024-01-20T02:47:36.431Z,4.42
2024-01-20T02:50:04.717Z,5.52
2024-01-20T02:52:32.440Z,4.77
2024-01-20T02:55:00.695Z,4.29
2024-01-20T02:57:29.887Z,5.00
2024-01-20T02:59:58.646Z,4.19
2024-01-20T03:02:26.352Z,5.26
2024-01-20T03:04:54.633Z,5.88
2024-01-20T03:07:22.322Z,4.14
2024-01-20T03:09:50.632Z,4.13
2024-01-20T03:12:18.305Z,3.83
2024-01-20T03:14:47.626Z,4.70
2024-01-20T03:17:15.281Z,4.75
2024-01-20T03:19:44.007Z,4.65
2024-01-20T03:22:11.748Z,4.17
2024-01-20T03:24:39.735Z,4.37
2024-01-20T03:27:07.551Z,4.45
2024-01-20T03:29:35.660Z,4.89
2024-01-20T03:32:05.041Z,4.65
2024-01-20T03:34:33.014Z,4.40
2024-01-20T03:37:01.666Z,4.67
2024-01-20T03:39:29.373Z,4.98
2024-01-20T03:41:57.693Z,4.64
2024-01-20T03:44:25.703Z,4.85
2024-01-20T03:46:53.683Z,3.09
2024-01-20T03:49:22.888Z,4.13
2024-01-20T03:51:50.855Z,3.66
2024-01-20T03:54:18.569Z,3.78
2024-01-20T03:56:46.690Z,3.96
2024-01-20T03:59:14.332Z,4.28
2024-01-20T04:01:42.683Z,4.37
2024-01-20T04:04:10.916Z,5.07
2024-01-20T04:06:40.724Z,5.18
2024-01-20T04:09:08.583Z,4.79
2024-01-20T04:11:36.382Z,4.58
2024-01-20T04:14:04.700Z,6.02
2024-01-20T04:16:32.695Z,4.15
2024-01-20T04:19:00.870Z,5.65
2024-01-20T04:21:28.697Z,4.77
2024-01-20T04:23:57.817Z,4.34
2024-01-20T04:26:25.729Z,5.43
2024-01-20T04:28:53.390Z,4.89
2024-01-20T04:31:21.168Z,5.32
2024-01-20T04:33:49.796Z,5.45
2024-01-20T04:36:17.529Z,4.10
2024-01-20T04:38:45.361Z,4.75
2024-01-20T04:41:14.706Z,4.73
2024-01-20T04:43:43.179Z,5.18
2024-01-20T04:46:11.725Z,5.17
2024-01-20T04:48:39.516Z,4.47
2024-01-20T04:51:07.739Z,4.84
2024-01-20T04:53:35.763Z,5.43
2024-01-20T04:56:04.698Z,5.22
2024-01-20T04:58:34.757Z,4.88
2024-01-20T05:01:02.735Z,4.43
2024-01-20T05:03:30.779Z,5.52
2024-01-20T05:05:58.563Z,4.53
2024-01-20T05:08:27.745Z,6.66
2024-01-20T05:10:55.423Z,4.41
2024-01-20T05:13:23.342Z,4.12
2024-01-20T05:15:54.763Z,5.62
2024-01-20T05:18:22.915Z,4.48
2024-01-20T05:20:50.739Z,4.95
2024-01-20T05:23:19.764Z,4.64
2024-01-20T05:25:47.787Z,5.26
2024-01-20T05:31:33.273Z,5.57
2024-01-20T05:34:01.352Z,4.65
2024-01-20T05:36:30.352Z,4.07
2024-01-20T05:38:58.814Z,5.33
2024-01-20T05:41:26.536Z,4.96
2024-01-20T05:43:55.098Z,4.80
2024-01-20T05:46:22.797Z,4.58
2024-01-20T05:48:53.041Z,5.19
2024-01-20T05:51:20.884Z,5.62
2024-01-20T05:53:48.581Z,4.22
2024-01-20T05:56:17.773Z,4.45
2024-01-20T05:58:45.568Z,5.05
2024-01-20T06:01:14.843Z,5.01
2024-01-20T06:03:42.803Z,4.23
2024-01-20T06:06:12.520Z,5.60
2024-01-20T06:08:40.937Z,3.91
2024-01-20T06:11:08.585Z,5.79
2024-01-20T06:13:36.821Z,4.73
2024-01-20T06:16:04.793Z,5.00
2024-01-20T06:18:32.915Z,6.31
2024-01-20T06:21:01.576Z,5.33
2024-01-20T06:23:30.739Z,5.88
2024-01-20T06:25:59.862Z,4.69
2024-01-20T06:28:27.590Z,4.96
2024-01-20T06:30:55.826Z,6.52
2024-01-20T06:33:23.676Z,4.69
2024-01-20T06:35:52.989Z,4.82
2024-01-20T06:38:21.028Z,5.68
2024-01-20T06:40:50.050Z,5.91
2024-01-20T06:43:17.865Z,4.86
2024-01-20T06:45:47.213Z,6.97
2024-01-20T06:48:14.991Z,5.36
2024-01-20T06:50:45.868Z,4.02
2024-01-20T06:53:13.589Z,4.79
2024-01-20T06:55:41.273Z,5.07
2024-01-20T06:58:10.456Z,5.38
2024-01-20T07:00:38.926Z,3.61
2024-01-20T07:03:06.755Z,5.51
2024-01-20T07:05:34.886Z,5.95
2024-01-20T07:08:03.153Z,6.02
2024-01-20T07:10:30.911Z,5.45
2024-01-20T07:12:58.568Z,5.28
2024-01-20T07:15:27.927Z,4.14
2024-01-20T07:17:57.122Z,5.21
2024-01-20T07:20:25.874Z,4.46
2024-01-20T07:22:53.621Z,4.67
2024-01-20T07:25:21.282Z,6.04
2024-01-20T07:27:49.901Z,5.10
2024-01-20T07:30:17.813Z,4.73
2024-01-20T07:32:47.907Z,4.57
2024-01-20T07:35:15.642Z,5.17
2024-01-20T07:37:44.063Z,4.38
2024-01-20T07:40:12.526Z,6.24
2024-01-20T07:42:42.092Z,5.67
2024-01-20T07:45:10.653Z,5.24
2024-01-20T07:47:38.419Z,5.45
2024-01-20T07:52:55.931Z,4.74
2024-01-20T07:55:23.621Z,6.75
2024-01-20T07:57:52.000Z,6.94
2024-01-20T08:00:20.377Z,5.05
2024-01-20T08:02:48.938Z,5.22
2024-01-20T08:05:16.812Z,4.91
2024-01-20T08:07:44.978Z,5.64
2024-01-20T08:10:14.429Z,5.77
2024-01-20T08:12:42.718Z,4.69
2024-01-20T08:15:11.948Z,4.80
2024-01-20T08:17:41.403Z,4.05
2024-01-20T08:20:11.746Z,5.12
2024-01-20T08:22:39.974Z,3.96
2024-01-20T08:25:09.534Z,4.39
2024-01-20T08:27:38.957Z,4.32
2024-01-20T08:30:07.989Z,5.02
2024-01-20T08:32:36.078Z,4.23
2024-01-20T08:35:03.959Z,3.90
2024-01-20T08:37:31.963Z,4.73
2024-01-20T08:39:59.667Z,6.06
2024-01-20T08:42:28.018Z,5.76
2024-01-20T08:44:57.159Z,4.95
2024-01-20T08:47:24.876Z,5.77
2024-01-20T08:49:53.976Z,4.65
2024-01-20T08:52:21.727Z,5.74
2024-01-20T08:54:49.443Z,4.25
2024-01-20T08:57:18.024Z,6.57
2024-01-20T08:59:45.686Z,4.40
2024-01-20T09:02:14.985Z,4.79
2024-01-20T09:04:42.681Z,5.87
2024-01-20T09:07:11.021Z,5.24
2024-01-20T09:09:38.803Z,4.47
2024-01-20T09:12:08.007Z,5.49
2024-01-20T09:14:37.539Z,4.97
2024-01-20T09:17:05.515Z,6.79
2024-01-20T09:19:35.168Z,5.02
2024-01-20T09:22:02.868Z,5.93
2024-01-20T09:24:30.536Z,4.29
2024-01-20T09:26:59.022Z,4.86
2024-01-20T09:29:26.725Z,6.78
2024-01-20T09:31:56.279Z,4.57
2024-01-20T09:34:24.040Z,4.54
2024-01-20T09:36:53.996Z,7.14
2024-01-20T09:39:21.761Z,5.20
2024-01-20T09:41:50.005Z,5.02
2024-01-20T09:44:17.750Z,3.90
2024-01-20T09:46:46.021Z,6.19
2024-01-20T09:49:13.861Z,4.46
2024-01-20T09:51:47.786Z,5.20
2024-01-20T09:54:18.061Z,5.51
2024-01-20T09:56:45.719Z,4.61
2024-01-20T09:59:15.155Z,4.91
2024-01-20T10:01:44.130Z,6.27
2024-01-20T10:04:11.996Z,4.94
2024-01-20T10:06:40.095Z,4.87
2024-01-20T10:09:07.866Z,5.05
2024-01-20T10:11:37.040Z,5.71
2024-01-20T10:14:05.027Z,5.18
2024-01-20T10:16:39.174Z,5.56
2024-01-20T10:19:07.038Z,7.16
2024-01-20T10:21:40.448Z,5.14
2024-01-20T10:24:09.087Z,6.60
2024-01-20T10:26:44.860Z,5.55
2024-01-20T10:29:12.522Z,4.66
2024-01-20T10:31:41.057Z,5.65
2024-01-20T10:34:08.951Z,6.63
2024-01-20T10:36:37.180Z,5.19
2024-01-20T10:39:07.010Z,6.86
2024-01-20T10:41:37.070Z,6.77
2024-01-20T10:44:07.446Z,6.35
2024-01-20T10:46:39.333Z,4.80
2024-01-20T10:49:10.511Z,5.41
2024-01-20T10:51:39.141Z,4.94
2024-01-20T10:54:10.124Z,5.53
2024-01-20T10:56:38.369Z,5.48
2024-01-20T10:59:13.614Z,4.84
2024-01-20T11:01:43.724Z,5.28
2024-01-20T11:04:12.202Z,6.21
2024-01-20T11:06:40.061Z,7.07
2024-01-20T11:09:09.141Z,6.30
2024-01-20T11:11:57.769Z,6.05
2024-01-20T11:14:31.125Z,7.38
2024-01-20T11:16:59.733Z,6.58
2024-01-20T11:19:31.285Z,6.16
2024-01-20T11:21:59.018Z,6.06
2024-01-20T11:24:40.401Z,4.71
2024-01-20T11:27:09.191Z,6.28
2024-01-20T11:29:38.407Z,7.37
2024-01-20T11:32:07.016Z,7.41
2024-01-20T11:34:35.229Z,5.93
2024-01-20T11:37:04.018Z,6.66
2024-01-20T11:39:32.181Z,6.86
2024-01-20T11:42:03.750Z,6.65
2024-01-20T11:44:32.532Z,8.16
2024-01-20T11:47:02.159Z,8.27
2024-01-20T11:49:29.884Z,8.65
2024-01-20T11:51:58.406Z,9.24
2024-01-20T11:54:26.179Z,7.04
2024-01-20T11:56:59.175Z,7.14
2024-01-20T11:59:27.310Z,8.08
2024-01-20T12:01:56.197Z,7.18
2024-01-20T12:04:25.716Z,7.36
2024-01-20T12:06:54.242Z,8.34
2024-01-20T12:09:22.067Z,9.28
2024-01-20T12:11:49.765Z,10.25
2024-01-20T12:14:19.198Z,10.99
2024-01-20T12:16:46.884Z,8.05
2024-01-20T12:19:15.268Z,7.68
2024-01-20T12:21:45.377Z,8.36
2024-01-20T12:24:14.256Z,8.65
2024-01-20T12:26:43.140Z,9.88
2024-01-20T12:29:10.794Z,8.14
2024-01-20T12:31:38.514Z,7.97
2024-01-20T12:34:06.291Z,8.20
2024-01-20T12:36:34.150Z,8.64
2024-01-20T12:39:04.231Z,8.91
2024-01-20T12:41:31.942Z,8.97
2024-01-20T12:44:00.233Z,9.82
2024-01-20T12:46:27.941Z,9.01
2024-01-20T12:48:56.274Z,10.59
2024-01-20T12:51:24.145Z,10.17
2024-01-20T12:53:51.819Z,8.32
2024-01-20T12:56:21.259Z,9.01
2024-01-20T12:58:48.925Z,10.04
2024-01-20T13:01:18.258Z,11.27
2024-01-20T13:03:46.167Z,8.56
2024-01-20T13:06:14.321Z,10.26
2024-01-20T13:08:41.982Z,10.08
2024-01-20T13:11:10.244Z,9.09
2024-01-20T13:13:41.598Z,9.35
2024-01-20T13:16:09.478Z,10.55
2024-01-20T13:18:37.393Z,9.13
2024-01-20T13:21:05.489Z,11.48
2024-01-20T13:23:33.161Z,12.09
2024-01-20T13:26:02.416Z,9.23
2024-01-20T13:28:31.891Z,8.71
2024-01-20T13:31:01.050Z,10.28
2024-01-20T13:33:29.395Z,9.49
2024-01-20T13:35:57.071Z,12.47
2024-01-20T13:38:25.303Z,8.87
2024-01-20T13:40:53.093Z,10.15
2024-01-20T13:43:21.284Z,12.42
2024-01-20T13:45:49.053Z,12.02
2024-01-20T13:48:18.579Z,8.85
2024-01-20T13:50:46.370Z,11.41
2024-01-20T13:53:14.296Z,10.38
2024-01-20T13:55:42.006Z,8.44
2024-01-20T13:58:10.030Z,11.59
2024-01-20T14:00:38.419Z,9.80
2024-01-20T14:03:06.525Z,11.42
2024-01-20T14:08:24.309Z,12.14
2024-01-20T14:10:52.160Z,11.73
2024-01-20T14:13:20.318Z,11.74
2024-01-20T14:15:48.176Z,12.79
2024-01-20T14:18:15.951Z,10.18
2024-01-20T14:23:30.330Z,13.75
2024-01-20T14:25:58.133Z,11.29
2024-01-20T14:28:26.479Z,9.88
2024-01-20T14:30:54.193Z,12.12
2024-01-20T14:33:22.502Z,11.61
2024-01-20T14:35:50.349Z,11.55
2024-01-20T14:38:18.368Z,11.88
2024-01-20T14:40:47.404Z,12.40
2024-01-20T14:43:15.350Z,12.81
2024-01-20T14:45:43.104Z,12.11
2024-01-20T14:48:12.541Z,10.02
2024-01-20T14:50:40.326Z,12.88
2024-01-20T14:53:08.373Z,15.63
2024-01-20T14:55:36.316Z,14.67
2024-01-20T14:58:06.373Z,13.97
2024-01-20T15:00:34.053Z,14.31
2024-01-20T15:03:02.481Z,11.41
2024-01-20T15:05:30.293Z,12.65
2024-01-20T15:07:58.398Z,13.03
2024-01-20T15:10:26.029Z,11.46
2024-01-20T15:12:54.418Z,12.92
2024-01-20T15:15:23.555Z,11.67
2024-01-20T15:17:51.442Z,10.40
2024-01-20T15:20:22.097Z,11.66
2024-01-20T15:22:51.397Z,11.68
2024-01-20T15:25:19.712Z,12.54
2024-01-20T15:27:49.579Z,11.89
2024-01-20T15:30:17.395Z,10.13
2024-01-20T15:32:46.543Z,11.63
2024-01-20T15:35:14.369Z,10.47
2024-01-20T15:37:42.037Z,10.79
2024-01-20T15:40:10.682Z,11.01
2024-01-20T15:42:38.492Z,10.35
2024-01-20T15:45:07.222Z,9.61
2024-01-20T15:47:34.922Z,9.76
2024-01-20T15:50:05.470Z,9.84
2024-01-20T15:52:33.260Z,9.10
2024-01-20T15:55:01.452Z,9.37
2024-01-20T15:57:29.132Z,9.31
2024-01-20T15:59:57.453Z,10.40
2024-01-20T16:02:25.715Z,7.66
2024-01-20T16:04:53.440Z,10.25
2024-01-20T16:07:22.697Z,11.03
2024-01-20T16:09:50.520Z,10.73
2024-01-20T16:12:18.319Z,10.94
2024-01-20T16:14:46.465Z,12.10
2024-01-20T16:17:14.151Z,10.72
2024-01-20T16:19:42.533Z,11.93
2024-01-20T16:22:10.220Z,11.97
2024-01-20T16:24:39.429Z,13.30
2024-01-20T16:27:07.475Z,11.26
2024-01-20T16:29:35.195Z,10.30
2024-01-20T16:32:03.316Z,10.08
2024-01-20T16:34:31.125Z,10.12
2024-01-20T16:36:59.495Z,9.15
2024-01-20T16:39:27.186Z,10.38
2024-01-20T16:41:56.935Z,9.49
2024-01-20T16:44:25.486Z,9.08
2024-01-20T16:46:53.847Z,9.44
2024-01-20T16:49:22.639Z,8.27
2024-01-20T16:51:50.439Z,8.94
2024-01-20T16:54:18.569Z,8.43
2024-01-20T16:56:46.268Z,10.22
2024-01-20T16:59:15.493Z,8.94
2024-01-20T17:01:43.188Z,9.18
2024-01-20T17:04:11.858Z,9.51
2024-01-20T17:06:39.654Z,10.27
2024-01-20T17:09:07.548Z,10.02
2024-01-20T17:11:35.237Z,10.06
2024-01-20T17:14:05.542Z,10.09
2024-01-20T17:16:35.247Z,9.83
2024-01-20T17:19:05.584Z,10.65
2024-01-20T17:21:34.380Z,10.18
2024-01-20T17:24:02.671Z,11.63
2024-01-20T17:26:31.119Z,10.32
2024-01-20T17:28:59.533Z,10.47
2024-01-20T17:31:29.793Z,9.16
2024-01-20T17:33:59.657Z,10.02
2024-01-20T17:36:27.407Z,11.14
2024-01-20T17:38:57.552Z,11.65
2024-01-20T17:41:25.261Z,9.82
2024-01-20T17:43:53.560Z,9.09
2024-01-20T17:46:21.190Z,10.09
2024-01-20T17:48:49.697Z,9.18
2024-01-20T17:51:18.936Z,9.45
2024-01-20T17:53:47.563Z,10.43
2024-01-20T17:56:15.346Z,9.35
2024-01-20T17:58:43.576Z,9.92
2024-01-20T18:01:18.835Z,10.39
2024-01-20T18:03:47.663Z,11.11
2024-01-20T18:06:16.382Z,11.30
2024-01-20T18:08:46.570Z,12.22
2024-01-20T18:11:14.305Z,10.77
2024-01-20T18:13:42.565Z,11.53
2024-01-20T18:16:10.305Z,11.68
2024-01-20T18:18:38.186Z,10.17
2024-01-20T18:21:06.643Z,9.47
2024-01-20T18:23:34.330Z,10.60
2024-01-20T18:26:03.326Z,10.46
2024-01-20T18:28:31.600Z,11.00
2024-01-20T18:31:00.682Z,10.42
2024-01-20T18:33:29.641Z,11.13
2024-01-20T18:35:57.475Z,11.08
2024-01-20T18:38:25.609Z,9.83
2024-01-20T18:40:53.301Z,8.84
2024-01-20T18:43:22.593Z,9.45
2024-01-20T18:45:50.233Z,9.84
2024-01-20T18:48:18.731Z,10.14
2024-01-20T18:50:46.747Z,9.07
2024-01-20T18:53:14.610Z,8.72
2024-01-20T18:55:42.384Z,9.61
2024-01-20T18:58:12.622Z,10.51
2024-01-20T19:00:42.109Z,10.26
2024-01-20T19:03:10.968Z,9.55
2024-01-20T19:05:39.377Z,10.03
2024-01-20T19:08:07.635Z,10.62
2024-01-20T19:10:35.242Z,10.58
2024-01-20T19:13:03.637Z,10.07
2024-01-20T19:15:31.555Z,9.42
2024-01-20T19:18:01.758Z,9.30
2024-01-20T19:20:30.216Z,10.09
2024-01-20T19:22:58.809Z,9.75
2024-01-20T19:25:26.955Z,9.96
2024-01-20T19:27:56.418Z,11.21
2024-01-20T19:30:25.379Z,9.61
2024-01-20T19:32:53.215Z,10.63
2024-01-20T19:35:23.677Z,11.19
2024-01-20T19:37:51.405Z,10.89
2024-01-20T19:40:19.409Z,11.59
2024-01-20T19:42:47.700Z,11.05
2024-01-20T19:45:38.459Z,9.99
2024-01-20T19:48:04.806Z,11.22
2024-01-20T19:50:33.985Z,10.31
2024-01-20T19:53:02.694Z,12.09
2024-01-20T19:55:30.568Z,12.28
2024-01-20T19:57:58.745Z,11.84
2024-01-20T20:00:26.506Z,12.08
2024-01-20T20:03:00.791Z,11.69
2024-01-20T20:05:28.491Z,9.77
2024-01-20T20:07:57.703Z,9.91
2024-01-20T20:10:28.163Z,10.77
2024-01-20T20:12:56.714Z,12.09
2024-01-20T20:15:24.525Z,10.32
2024-01-20T20:17:52.263Z,11.21
2024-01-20T20:20:24.717Z,10.92
2024-01-20T20:22:52.509Z,11.18
2024-01-20T20:25:21.726Z,11.10
2024-01-20T20:27:49.502Z,10.99
2024-01-20T20:30:17.921Z,10.51
2024-01-20T20:32:46.606Z,12.12
2024-01-20T20:35:15.744Z,11.20
2024-01-20T20:37:43.417Z,10.81
2024-01-20T20:40:12.737Z,11.87
2024-01-20T20:42:41.843Z,10.14
2024-01-20T20:45:10.757Z,10.46
2024-01-20T20:47:38.557Z,10.44
2024-01-20T20:50:07.884Z,10.78
2024-01-20T20:52:35.743Z,11.48
2024-01-20T20:55:03.427Z,10.43
2024-01-20T20:57:42.879Z,10.10
2024-01-20T21:00:15.981Z,9.74
2024-01-20T21:02:45.583Z,10.11
2024-01-20T21:05:18.060Z,11.04
2024-01-20T21:07:46.171Z,10.29
2024-01-20T21:10:15.554Z,11.09
2024-01-20T21:12:45.870Z,10.97
2024-01-20T21:15:14.130Z,11.14
2024-01-20T21:17:42.897Z,10.81
2024-01-20T21:20:11.735Z,8.32
2024-01-20T21:22:39.808Z,10.83
2024-01-20T21:25:08.993Z,9.86
2024-01-20T21:27:36.671Z,10.01
2024-01-20T21:30:06.811Z,11.03
2024-01-20T21:32:34.528Z,9.61
2024-01-20T21:35:02.908Z,11.12
2024-01-20T21:37:30.788Z,11.47
2024-01-20T21:39:58.805Z,12.70
2024-01-20T21:42:26.478Z,10.74
2024-01-20T21:44:57.949Z,11.62
2024-01-20T21:47:48.890Z,12.53
2024-01-20T21:50:16.693Z,11.45
2024-01-20T21:52:44.796Z,11.46
2024-01-20T21:55:12.480Z,11.96
2024-01-20T21:57:42.940Z,11.20
2024-01-20T22:00:11.484Z,11.59
2024-01-20T22:02:39.924Z,9.86
2024-01-20T22:05:09.472Z,11.56
2024-01-20T22:07:36.853Z,10.53
2024-01-20T22:10:06.000Z,11.56
2024-01-20T22:12:33.933Z,10.74
2024-01-20T22:15:01.835Z,10.43
2024-01-20T22:17:29.507Z,10.30
2024-01-20T22:19:57.726Z,11.22
2024-01-20T22:22:27.845Z,10.85
2024-01-20T22:24:55.552Z,12.49
2024-01-20T22:27:23.891Z,10.39
2024-01-20T22:29:51.574Z,11.41
2024-01-20T22:32:19.255Z,10.49
2024-01-20T22:34:47.926Z,11.24
2024-01-20T22:37:15.720Z,11.12
2024-01-20T22:39:44.943Z,9.76
2024-01-20T22:42:12.691Z,10.45
2024-01-20T22:44:40.326Z,10.88
2024-01-20T22:47:08.183Z,9.67
2024-01-20T22:49:36.920Z,10.79
2024-01-20T22:52:05.853Z,10.59
2024-01-20T22:54:34.897Z,10.15
2024-01-20T22:57:05.854Z,10.81
2024-01-20T22:59:33.888Z,9.05
2024-01-20T23:02:01.589Z,10.87
2024-01-20T23:04:29.647Z,10.57
2024-01-20T23:06:57.923Z,10.08
2024-01-20T23:09:27.393Z,10.72
2024-01-20T23:11:55.910Z,11.17
2024-01-20T23:14:25.242Z,12.71
2024-01-20T23:16:53.889Z,12.58
2024-01-20T23:19:21.635Z,13.25
2024-01-20T23:21:49.327Z,13.06
2024-01-20T23:24:17.975Z,12.82
2024-01-20T23:26:46.064Z,12.85
2024-01-20T23:29:13.710Z,12.89
2024-01-20T23:31:42.909Z,12.20
2024-01-20T23:34:11.273Z,13.25
2024-01-20T23:36:39.125Z,12.94
2024-01-20T23:39:16.954Z,12.42
2024-01-20T23:41:44.623Z,11.45
2024-01-20T23:44:12.319Z,11.49
2024-01-20T23:46:40.981Z,11.76
2024-01-20T23:49:11.631Z,11.11
2024-01-20T23:51:39.974Z,12.30
2024-01-20T23:54:07.720Z,11.62
2024-01-20T23:56:35.942Z,12.01
2024-01-20T23:59:04.027Z,12.02
